F/V Kadege — FOWB — position and weather

sailwx.info

Track history (hours):
 
Tides and Currents Weather Stations Pressure Air Temp Water Temp Dewpoint Dewpoint Depression Visibility Wind Speed Wind Dir Waves Ship Positions

F/V Kadege

Last reported at 2018-Feb-19 10:14 UTC. Time now 2018-Feb-19 12:18 UTC.
Position N 48°22' W 004°47'.

Length 15 m; draft 3 m.

Type: Fishing. MMSI: 226084000.

Date/timePositionNaut miles runAvg speedWind from/ knotsBaromVisibWave heightAir tempDewpointWater temp
2018-Feb-19 10:14N 48°22' W 004°47'0 0.0
2018-Feb-19 09:58N 48°22' W 004°47'  
2018-Feb-16 08:11N 48°22' W 004°47'0 0.0
2018-Feb-16 07:59N 48°22' W 004°47'0 0.0
2018-Feb-14 15:07N 48°22' W 004°47'0 0.0
2018-Feb-14 15:00N 48°22' W 004°47'0 0.0
2018-Feb-14 14:30N 48°22' W 004°47'0 0.1
2018-Feb-14 14:00N 48°22' W 004°47'2 3.5
2018-Feb-14 13:30N 48°21' W 004°49'4 8.6
2018-Feb-14 13:00N 48°20' W 004°55'5 7.8
2018-Feb-14 12:23N 48°19' W 005°02'3 7.4
2018-Feb-14 11:57N 48°19' W 005°07'5 7.5
2018-Feb-14 11:18N 48°20' W 005°15'3 7.4
2018-Feb-14 10:54N 48°21' W 005°19'1 2.3
2018-Feb-14 10:30N 48°22' W 005°20'1 2.0
2018-Feb-14 09:54N 48°23' W 005°20'1 2.0
2018-Feb-14 09:14N 48°24' W 005°21'1 2.3
2018-Feb-14 08:58N 48°24' W 005°21'1 2.2
2018-Feb-14 08:30N 48°26' W 005°21'1 2.2
2018-Feb-14 07:58N 48°24' W 005°20'0 0.6
2018-Feb-14 07:23N 48°24' W 005°20'1 2.3
2018-Feb-14 07:00N 48°25' W 005°20'1 2.1
2018-Feb-14 06:17N 48°27' W 005°21'1 2.2
2018-Feb-14 05:56N 48°27' W 005°21'1 2.0
2018-Feb-14 05:24N 48°28' W 005°21'1 2.2
2018-Feb-14 04:59N 48°28' W 005°19'1 1.8
2018-Feb-14 04:26N 48°27' W 005°20'1 1.5
2018-Feb-14 03:59N 48°26' W 005°19'4 8.2
2018-Feb-14 03:26N 48°25' W 005°13'4 8.7
2018-Feb-14 02:59N 48°23' W 005°08'4 8.7
2018-Feb-14 02:30N 48°22' W 005°01'4 8.0
2018-Feb-14 02:00N 48°22' W 004°55'4 7.3
2018-Feb-14 01:30N 48°22' W 004°50'2 0.1
2018-Feb-12 13:19N 48°22' W 004°47'0 0.1
2018-Feb-12 13:00N 48°22' W 004°47'2 4.8
2018-Feb-12 12:30N 48°23' W 004°50'4 8.5
2018-Feb-12 12:00N 48°26' W 004°54'4 8.5
2018-Feb-12 11:30N 48°30' W 004°57'4 8.1
2018-Feb-12 11:00N 48°34' W 004°59'4 8.1
2018-Feb-12 10:30N 48°37' W 005°02'4 8.1
2018-Feb-12 10:00N 48°41' W 005°05'1 1.9
2018-Feb-12 09:30N 48°42' W 005°04'1 2.3
2018-Feb-12 08:59N 48°42' W 005°03'1 2.2
2018-Feb-12 08:24N 48°43' W 005°05'1 2.2
2018-Feb-12 08:00N 48°43' W 005°04'1 2.1
2018-Feb-12 07:29N 48°44' W 005°02'1 2.0
2018-Feb-12 07:00N 48°43' W 005°01'1 2.2
2018-Feb-12 06:30N 48°44' W 005°00'1 2.2
2018-Feb-12 06:00N 48°44' W 004°59'2 3.6
2018-Feb-12 05:30N 48°44' W 005°02'1 2.2
2018-Feb-12 04:59N 48°45' W 005°00'1 2.1
2018-Feb-12 04:30N 48°46' W 004°59'2 4.9
2018-Feb-12 04:00N 48°43' W 004°58'4 8.1
2018-Feb-12 03:30N 48°39' W 004°56'4 8.3
2018-Feb-12 03:00N 48°35' W 004°54'4 8.4
2018-Feb-12 02:30N 48°31' W 004°52'4 8.6
2018-Feb-12 02:00N 48°27' W 004°51'4 8.6
2018-Feb-12 01:30N 48°23' W 004°49'2 0.2
2018-Feb-11 15:55N 48°22' W 004°47'0 0.1
2018-Feb-11 15:31N 48°22' W 004°47'3 5.3
2018-Feb-11 15:00N 48°22' W 004°51'4 7.8
2018-Feb-11 14:30N 48°21' W 004°57'5 8.9
2018-Feb-11 13:58N 48°23' W 005°03'4 8.8
2018-Feb-11 13:29N 48°25' W 005°09'4 8.5
2018-Feb-11 12:59N 48°27' W 005°15'4 7.6
2018-Feb-11 12:27N 48°29' W 005°20'1 2.0
2018-Feb-11 12:00N 48°28' W 005°20'1 2.1
2018-Feb-11 11:30N 48°27' W 005°21'1 1.5
2018-Feb-11 10:54N 48°26' W 005°21'1 2.1
2018-Feb-11 10:27N 48°25' W 005°21'1 2.0
2018-Feb-11 09:57N 48°24' W 005°21'1 1.3
2018-Feb-11 09:30N 48°24' W 005°21'4 8.2
2018-Feb-11 08:59N 48°29' W 005°21'4 7.0
2018-Feb-11 08:23N 48°24' W 005°20'3 7.3
2018-Feb-11 07:54N 48°21' W 005°20'1 2.0
2018-Feb-11 07:26N 48°22' W 005°19'1 2.0
2018-Feb-11 06:57N 48°23' W 005°19'1 1.6
2018-Feb-11 06:27N 48°23' W 005°19'1 2.0
2018-Feb-11 05:50N 48°25' W 005°19'1 2.2
2018-Feb-11 05:29N 48°25' W 005°19'1 1.6
2018-Feb-11 05:00N 48°26' W 005°19'1 2.1
2018-Feb-11 04:30N 48°27' W 005°19'1 2.7
2018-Feb-11 03:59N 48°27' W 005°17'4 7.5
2018-Feb-11 03:30N 48°26' W 005°12'4 7.5
2018-Feb-11 03:00N 48°24' W 005°07'4 7.7
2018-Feb-11 02:30N 48°22' W 005°02'4 7.9
2018-Feb-11 02:00N 48°22' W 004°56'4 8.6
2018-Feb-11 01:30N 48°22' W 004°50'2 0.2
2018-Feb-10 13:36N 48°22' W 004°47'0 0.0
2018-Feb-10 13:22N 48°22' W 004°47'0 0.1
2018-Feb-10 13:00N 48°22' W 004°47'1 2.5
2018-Feb-10 12:30N 48°22' W 004°48'4 8.8
2018-Feb-10 12:01N 48°25' W 004°53'4 8.8
2018-Feb-10 11:30N 48°29' W 004°57'4 8.9
2018-Feb-10 11:00N 48°32' W 005°02'4 8.6
2018-Feb-10 10:29N 48°35' W 005°07'2 3.5
2018-Feb-10 10:01N 48°36' W 005°09'1 1.8
2018-Feb-10 09:28N 48°35' W 005°10'1 2.0
2018-Feb-10 09:00N 48°35' W 005°11'1 1.2
2018-Feb-10 08:27N 48°34' W 005°12'1 1.9
2018-Feb-10 08:00N 48°34' W 005°13'1 1.8
2018-Feb-10 07:23N 48°33' W 005°14'1 1.9
2018-Feb-10 06:58N 48°33' W 005°15'1 1.3
2018-Feb-10 06:28N 48°34' W 005°14'1 1.5
2018-Feb-10 06:00N 48°34' W 005°13'1 1.6
2018-Feb-10 05:28N 48°35' W 005°12'1 1.6
2018-Feb-10 05:00N 48°35' W 005°12'1 2.0
2018-Feb-10 04:30N 48°36' W 005°10'1 2.0
2018-Feb-10 04:00N 48°37' W 005°09'3 6.2
2018-Feb-10 03:29N 48°34' W 005°06'4 8.5
2018-Feb-10 03:00N 48°31' W 005°02'4 8.3
2018-Feb-10 02:30N 48°28' W 004°57'4 8.5
2018-Feb-10 02:00N 48°25' W 004°53'4 7.9
2018-Feb-10 01:30N 48°23' W 004°49'23 1.7
2018-Feb-09 12:30N 48°43' W 005°05'5 4.7
2018-Feb-09 11:30N 48°45' W 004°59'  
Track history (hours):
 
Tides and Currents Weather Stations Pressure Air Temp Water Temp Dewpoint Dewpoint Depression Visibility Wind Speed Wind Dir Waves Ship Positions

F/V Kadege

Last reported at 2018-Feb-19 10:14 UTC. Time now 2018-Feb-19 12:18 UTC.
Position N 48°22' W 004°47'.

Length 15 m; draft 3 m.

Type: Fishing. MMSI: 226084000.

Date/timePositionNaut miles runAvg speedWind from/ knotsBaromVisibWave heightAir tempDewpointWater temp
2018-Feb-19 10:14N 48°22' W 004°47'0 0.0
2018-Feb-19 09:58N 48°22' W 004°47'  
2018-Feb-16 08:11N 48°22' W 004°47'0 0.0
2018-Feb-16 07:59N 48°22' W 004°47'0 0.0
2018-Feb-14 15:07N 48°22' W 004°47'0 0.0
2018-Feb-14 15:00N 48°22' W 004°47'0 0.0
2018-Feb-14 14:30N 48°22' W 004°47'0 0.1
2018-Feb-14 14:00N 48°22' W 004°47'2 3.5
2018-Feb-14 13:30N 48°21' W 004°49'4 8.6
2018-Feb-14 13:00N 48°20' W 004°55'5 7.8
2018-Feb-14 12:23N 48°19' W 005°02'3 7.4
2018-Feb-14 11:57N 48°19' W 005°07'5 7.5
2018-Feb-14 11:18N 48°20' W 005°15'3 7.4
2018-Feb-14 10:54N 48°21' W 005°19'1 2.3
2018-Feb-14 10:30N 48°22' W 005°20'1 2.0
2018-Feb-14 09:54N 48°23' W 005°20'1 2.0
2018-Feb-14 09:14N 48°24' W 005°21'1 2.3
2018-Feb-14 08:58N 48°24' W 005°21'1 2.2
2018-Feb-14 08:30N 48°26' W 005°21'1 2.2
2018-Feb-14 07:58N 48°24' W 005°20'0 0.6
2018-Feb-14 07:23N 48°24' W 005°20'1 2.3
2018-Feb-14 07:00N 48°25' W 005°20'1 2.1
2018-Feb-14 06:17N 48°27' W 005°21'1 2.2
2018-Feb-14 05:56N 48°27' W 005°21'1 2.0
2018-Feb-14 05:24N 48°28' W 005°21'1 2.2
2018-Feb-14 04:59N 48°28' W 005°19'1 1.8
2018-Feb-14 04:26N 48°27' W 005°20'1 1.5
2018-Feb-14 03:59N 48°26' W 005°19'4 8.2
2018-Feb-14 03:26N 48°25' W 005°13'4 8.7
2018-Feb-14 02:59N 48°23' W 005°08'4 8.7
2018-Feb-14 02:30N 48°22' W 005°01'4 8.0
2018-Feb-14 02:00N 48°22' W 004°55'4 7.3
2018-Feb-14 01:30N 48°22' W 004°50'2 0.1
2018-Feb-12 13:19N 48°22' W 004°47'0 0.1
2018-Feb-12 13:00N 48°22' W 004°47'2 4.8
2018-Feb-12 12:30N 48°23' W 004°50'4 8.5
2018-Feb-12 12:00N 48°26' W 004°54'4 8.5
2018-Feb-12 11:30N 48°30' W 004°57'4 8.1
2018-Feb-12 11:00N 48°34' W 004°59'4 8.1
2018-Feb-12 10:30N 48°37' W 005°02'4 8.1
2018-Feb-12 10:00N 48°41' W 005°05'1 1.9
2018-Feb-12 09:30N 48°42' W 005°04'1 2.3
2018-Feb-12 08:59N 48°42' W 005°03'1 2.2
2018-Feb-12 08:24N 48°43' W 005°05'1 2.2
2018-Feb-12 08:00N 48°43' W 005°04'1 2.1
2018-Feb-12 07:29N 48°44' W 005°02'1 2.0
2018-Feb-12 07:00N 48°43' W 005°01'1 2.2
2018-Feb-12 06:30N 48°44' W 005°00'1 2.2
2018-Feb-12 06:00N 48°44' W 004°59'2 3.6
2018-Feb-12 05:30N 48°44' W 005°02'1 2.2
2018-Feb-12 04:59N 48°45' W 005°00'1 2.1
2018-Feb-12 04:30N 48°46' W 004°59'2 4.9
2018-Feb-12 04:00N 48°43' W 004°58'4 8.1
2018-Feb-12 03:30N 48°39' W 004°56'4 8.3
2018-Feb-12 03:00N 48°35' W 004°54'4 8.4
2018-Feb-12 02:30N 48°31' W 004°52'4 8.6
2018-Feb-12 02:00N 48°27' W 004°51'4 8.6
2018-Feb-12 01:30N 48°23' W 004°49'2 0.2
2018-Feb-11 15:55N 48°22' W 004°47'0 0.1
2018-Feb-11 15:31N 48°22' W 004°47'3 5.3
2018-Feb-11 15:00N 48°22' W 004°51'4 7.8
2018-Feb-11 14:30N 48°21' W 004°57'5 8.9
2018-Feb-11 13:58N 48°23' W 005°03'4 8.8
2018-Feb-11 13:29N 48°25' W 005°09'4 8.5
2018-Feb-11 12:59N 48°27' W 005°15'4 7.6
2018-Feb-11 12:27N 48°29' W 005°20'1 2.0
2018-Feb-11 12:00N 48°28' W 005°20'1 2.1
2018-Feb-11 11:30N 48°27' W 005°21'1 1.5
2018-Feb-11 10:54N 48°26' W 005°21'1 2.1
2018-Feb-11 10:27N 48°25' W 005°21'1 2.0
2018-Feb-11 09:57N 48°24' W 005°21'1 1.3
2018-Feb-11 09:30N 48°24' W 005°21'4 8.2
2018-Feb-11 08:59N 48°29' W 005°21'4 7.0
2018-Feb-11 08:23N 48°24' W 005°20'3 7.3
2018-Feb-11 07:54N 48°21' W 005°20'1 2.0
2018-Feb-11 07:26N 48°22' W 005°19'1 2.0
2018-Feb-11 06:57N 48°23' W 005°19'1 1.6
2018-Feb-11 06:27N 48°23' W 005°19'1 2.0
2018-Feb-11 05:50N 48°25' W 005°19'1 2.2
2018-Feb-11 05:29N 48°25' W 005°19'1 1.6
2018-Feb-11 05:00N 48°26' W 005°19'1 2.1
2018-Feb-11 04:30N 48°27' W 005°19'1 2.7
2018-Feb-11 03:59N 48°27' W 005°17'4 7.5
2018-Feb-11 03:30N 48°26' W 005°12'4 7.5
2018-Feb-11 03:00N 48°24' W 005°07'4 7.7
2018-Feb-11 02:30N 48°22' W 005°02'4 7.9
2018-Feb-11 02:00N 48°22' W 004°56'4 8.6
2018-Feb-11 01:30N 48°22' W 004°50'2 0.2
2018-Feb-10 13:36N 48°22' W 004°47'0 0.0
2018-Feb-10 13:22N 48°22' W 004°47'0 0.1
2018-Feb-10 13:00N 48°22' W 004°47'1 2.5
2018-Feb-10 12:30N 48°22' W 004°48'4 8.8
2018-Feb-10 12:01N 48°25' W 004°53'4 8.8
2018-Feb-10 11:30N 48°29' W 004°57'4 8.9
2018-Feb-10 11:00N 48°32' W 005°02'4 8.6
2018-Feb-10 10:29N 48°35' W 005°07'2 3.5
2018-Feb-10 10:01N 48°36' W 005°09'1 1.8
2018-Feb-10 09:28N 48°35' W 005°10'1 2.0
2018-Feb-10 09:00N 48°35' W 005°11'1 1.2
2018-Feb-10 08:27N 48°34' W 005°12'1 1.9
2018-Feb-10 08:00N 48°34' W 005°13'1 1.8
2018-Feb-10 07:23N 48°33' W 005°14'1 1.9
2018-Feb-10 06:58N 48°33' W 005°15'1 1.3
2018-Feb-10 06:28N 48°34' W 005°14'1 1.5
2018-Feb-10 06:00N 48°34' W 005°13'1 1.6
2018-Feb-10 05:28N 48°35' W 005°12'1 1.6
2018-Feb-10 05:00N 48°35' W 005°12'1 2.0
2018-Feb-10 04:30N 48°36' W 005°10'1 2.0
2018-Feb-10 04:00N 48°37' W 005°09'3 6.2
2018-Feb-10 03:29N 48°34' W 005°06'4 8.5
2018-Feb-10 03:00N 48°31' W 005°02'4 8.3
2018-Feb-10 02:30N 48°28' W 004°57'4 8.5
2018-Feb-10 02:00N 48°25' W 004°53'4 7.9
2018-Feb-10 01:30N 48°23' W 004°49'23 1.7
2018-Feb-09 12:30N 48°43' W 005°05'5 4.7
2018-Feb-09 11:30N 48°45' W 004°59'  

Dump ship's entire track history